createdAt,value
2019-06-20T00:00:33.697Z,100190.91
2019-06-20T00:03:05.720Z,100182.73
2019-06-20T00:05:37.605Z,100184.41
2019-06-20T00:08:08.286Z,100195.02
2019-06-20T00:10:39.138Z,100187.85
2019-06-20T00:13:09.885Z,100185.67
2019-06-20T00:15:40.787Z,100185.29
2019-06-20T00:18:11.560Z,100185.29
2019-06-20T00:20:43.372Z,100189.69
2019-06-20T00:23:14.142Z,100189.56
2019-06-20T00:25:44.907Z,100192.71
2019-06-20T00:28:15.593Z,100193.59
2019-06-20T00:30:46.360Z,100188.52
2019-06-20T00:33:17.039Z,100189.31
2019-06-20T00:35:47.739Z,100198.95
2019-06-20T00:38:18.430Z,100189.92
2019-06-20T00:40:49.098Z,100192.27
2019-06-20T00:43:19.796Z,100195.05
2019-06-20T00:45:51.554Z,100190.94
2019-06-20T00:48:22.297Z,100183.23
2019-06-20T00:50:52.980Z,100180.55
2019-06-20T00:53:23.740Z,100188.75
2019-06-20T00:55:54.516Z,100182.92
2019-06-20T00:58:25.709Z,100185.12
2019-06-20T01:00:56.393Z,100185.61
2019-06-20T01:03:27.114Z,100188.38
2019-06-20T01:05:57.795Z,100185.02
2019-06-20T01:08:30.389Z,100181.81
2019-06-20T01:11:01.173Z,100187.79
2019-06-20T01:13:34.238Z,100185.50
2019-06-20T01:16:05.835Z,100187.34
2019-06-20T01:18:36.519Z,100187.59
2019-06-20T01:21:08.597Z,100180.55
2019-06-20T01:23:39.287Z,100178.95
2019-06-20T01:26:10.765Z,100181.09
2019-06-20T01:28:41.658Z,100172.33
2019-06-20T01:31:12.643Z,100176.87
2019-06-20T01:33:43.355Z,100173.02
2019-06-20T01:36:14.039Z,100178.03
2019-06-20T01:38:44.827Z,100170.58
2019-06-20T01:41:15.567Z,100168.44
2019-06-20T01:43:50.408Z,100175.09
2019-06-20T01:46:18.693Z,100175.52
2019-06-20T01:48:49.388Z,100175.47
2019-06-20T01:51:21.043Z,100175.22
2019-06-20T01:53:53.601Z,100178.28
2019-06-20T01:56:24.386Z,100178.88
2019-06-20T01:58:55.309Z,100174.49
2019-06-20T02:01:25.983Z,100170.00
2019-06-20T02:03:57.897Z,100166.05
2019-06-20T02:06:28.746Z,100172.66
2019-06-20T02:08:59.528Z,100167.83
2019-06-20T02:11:32.202Z,100168.62
2019-06-20T02:14:07.257Z,100168.47
2019-06-20T02:16:35.690Z,100178.48
2019-06-20T02:19:06.587Z,100180.27
2019-06-20T02:21:37.370Z,100184.41
2019-06-20T02:24:08.081Z,100189.20
2019-06-20T02:26:38.792Z,100181.94
2019-06-20T02:29:09.462Z,100183.03
2019-06-20T02:31:40.142Z,100187.47
2019-06-20T02:34:10.828Z,100185.14
2019-06-20T02:36:41.645Z,100190.63
2019-06-20T02:39:12.315Z,100187.22
2019-06-20T02:41:43.023Z,100193.77
2019-06-20T02:44:29.024Z,100188.75
2019-06-20T02:46:46.060Z,100193.04
2019-06-20T02:49:16.914Z,100192.80
2019-06-20T02:51:48.489Z,100193.05
2019-06-20T02:54:19.303Z,100186.63
2019-06-20T02:56:50.102Z,100189.00
2019-06-20T02:59:20.777Z,100188.20
2019-06-20T03:01:51.576Z,100183.25
2019-06-20T03:04:22.367Z,100184.92
2019-06-20T03:06:53.212Z,100189.14
2019-06-20T03:09:23.977Z,100195.41
2019-06-20T03:11:54.653Z,100195.41
2019-06-20T03:14:25.342Z,100193.53
2019-06-20T03:16:56.028Z,100198.16
2019-06-20T03:19:26.714Z,100199.71
2019-06-20T03:21:57.388Z,100199.08
2019-06-20T03:24:28.062Z,100200.23
2019-06-20T03:26:58.742Z,100203.42
2019-06-20T03:29:29.864Z,100202.28
2019-06-20T03:32:00.640Z,100202.45
2019-06-20T03:34:31.403Z,100204.27
2019-06-20T03:37:02.103Z,100198.09
2019-06-20T03:39:33.566Z,100198.98
2019-06-20T03:42:04.241Z,100203.14
2019-06-20T03:44:35.311Z,100200.17
2019-06-20T03:47:06.871Z,100201.02
2019-06-20T03:49:40.371Z,100204.02
2019-06-20T03:52:12.850Z,100202.15
2019-06-20T03:54:45.421Z,100202.99
2019-06-20T03:57:16.191Z,100195.30
2019-06-20T03:59:46.934Z,100190.91
2019-06-20T04:02:18.129Z,100194.17
2019-06-20T04:04:52.694Z,100199.12
2019-06-20T04:07:23.366Z,100204.80
2019-06-20T04:09:54.059Z,100205.93
2019-06-20T04:12:26.568Z,100209.71
2019-06-20T04:14:59.241Z,100212.05
2019-06-20T04:17:31.790Z,100210.19
2019-06-20T04:20:02.715Z,100213.59
2019-06-20T04:22:33.500Z,100210.08
2019-06-20T04:25:05.899Z,100214.62
2019-06-20T04:27:36.592Z,100213.23
2019-06-20T04:30:08.991Z,100212.10
2019-06-20T04:32:42.202Z,100216.38
2019-06-20T04:35:13.192Z,100222.73
2019-06-20T04:37:43.971Z,100232.59
2019-06-20T04:40:15.909Z,100229.36
2019-06-20T04:42:46.606Z,100224.23
2019-06-20T04:45:34.230Z,100221.27
2019-06-20T04:47:52.102Z,100222.81
2019-06-20T04:50:22.768Z,100224.66
2019-06-20T04:52:53.688Z,100226.48
2019-06-20T04:55:24.468Z,100224.11
2019-06-20T04:57:55.152Z,100221.72
2019-06-20T05:00:26.002Z,100215.21
2019-06-20T05:02:57.200Z,100215.21
2019-06-20T05:05:27.965Z,100212.67
2019-06-20T05:07:59.867Z,100223.85
2019-06-20T05:10:30.686Z,100230.30
2019-06-20T05:13:01.425Z,100232.32
2019-06-20T05:15:32.125Z,100225.48
2019-06-20T05:18:02.784Z,100224.13
2019-06-20T05:20:34.522Z,100225.04
2019-06-20T05:23:05.705Z,100227.28
2019-06-20T05:25:36.458Z,100227.36
2019-06-20T05:28:07.189Z,100226.78
2019-06-20T05:30:38.033Z,100232.93
2019-06-20T05:33:08.808Z,100227.41
2019-06-20T05:35:39.542Z,100227.89
2019-06-20T05:38:10.451Z,100220.73
2019-06-20T05:40:41.275Z,100223.06
2019-06-20T05:43:12.048Z,100223.66
2019-06-20T05:45:46.191Z,100225.30
2019-06-20T05:48:15.304Z,100223.74
2019-06-20T05:50:45.984Z,100232.06
2019-06-20T05:53:16.688Z,100226.70
2019-06-20T05:55:47.391Z,100233.66
2019-06-20T05:58:18.332Z,100220.09
2019-06-20T06:00:49.084Z,100231.95
2019-06-20T06:03:19.750Z,100241.64
2019-06-20T06:05:50.435Z,100238.34
2019-06-20T06:08:21.097Z,100237.92
2019-06-20T06:10:51.843Z,100240.45
2019-06-20T06:13:22.511Z,100242.98
2019-06-20T06:15:53.191Z,100241.54
2019-06-20T06:18:23.874Z,100245.26
2019-06-20T06:20:54.587Z,100247.88
2019-06-20T06:23:25.304Z,100257.85
2019-06-20T06:25:58.790Z,100255.09
2019-06-20T06:28:29.789Z,100256.56
2019-06-20T06:31:00.573Z,100260.93
2019-06-20T06:33:31.371Z,100258.09
2019-06-20T06:36:02.045Z,100253.02
2019-06-20T06:38:32.973Z,100255.09
2019-06-20T06:41:03.630Z,100253.49
2019-06-20T06:43:41.423Z,100255.14
2019-06-20T06:46:07.751Z,100255.97
2019-06-20T06:48:38.522Z,100260.10
2019-06-20T06:51:09.741Z,100257.45
2019-06-20T06:53:41.095Z,100256.39
2019-06-20T06:56:12.653Z,100257.73
2019-06-20T06:58:43.536Z,100255.50
2019-06-20T07:01:14.224Z,100264.12
2019-06-20T07:03:45.314Z,100261.98
2019-06-20T07:06:19.310Z,100269.08
2019-06-20T07:08:50.992Z,100276.58
2019-06-20T07:11:22.633Z,100278.00
2019-06-20T07:13:53.611Z,100278.09
2019-06-20T07:16:26.129Z,100283.06
2019-06-20T07:18:57.218Z,100273.00
2019-06-20T07:21:28.378Z,100273.30
2019-06-20T07:24:00.186Z,100260.18
2019-06-20T07:26:33.761Z,100249.77
2019-06-20T07:29:05.647Z,100250.66
2019-06-20T07:31:36.950Z,100253.30
2019-06-20T07:34:08.102Z,100255.73
2019-06-20T07:36:38.979Z,100263.01
2019-06-20T07:39:10.248Z,100262.83
2019-06-20T07:41:41.365Z,100258.40
2019-06-20T07:44:13.291Z,100249.12
2019-06-20T07:46:44.594Z,100255.41
2019-06-20T07:49:15.927Z,100254.82
2019-06-20T07:51:46.974Z,100253.56
2019-06-20T07:54:18.046Z,100248.80
2019-06-20T07:56:49.114Z,100253.87
2019-06-20T07:59:20.742Z,100256.40
2019-06-20T08:01:52.022Z,100249.52
2019-06-20T08:04:23.328Z,100258.05
2019-06-20T08:06:54.375Z,100257.04
2019-06-20T08:09:43.664Z,100255.78
2019-06-20T08:11:59.541Z,100252.91
2019-06-20T08:14:30.330Z,100260.36
2019-06-20T08:17:01.325Z,100264.48
2019-06-20T08:19:32.181Z,100261.05
2019-06-20T08:22:03.041Z,100259.09
2019-06-20T08:24:33.731Z,100264.72
2019-06-20T08:27:04.943Z,100264.23
2019-06-20T08:29:35.643Z,100257.97
2019-06-20T08:32:06.645Z,100260.69
2019-06-20T08:34:37.555Z,100256.38
2019-06-20T08:37:08.226Z,100253.97
2019-06-20T08:39:39.082Z,100248.30
2019-06-20T08:42:09.933Z,100249.58
2019-06-20T08:44:40.619Z,100240.97
2019-06-20T08:47:11.485Z,100241.16
2019-06-20T08:49:42.275Z,100232.55
2019-06-20T08:52:13.448Z,100239.52
2019-06-20T08:54:46.014Z,100233.27
2019-06-20T08:57:16.801Z,100235.70
2019-06-20T08:59:47.613Z,100241.50
2019-06-20T09:02:18.452Z,100250.38
2019-06-20T09:04:49.893Z,100248.94
2019-06-20T09:07:20.840Z,100244.04
2019-06-20T09:09:52.975Z,100245.16
2019-06-20T09:12:25.841Z,100241.26
2019-06-20T09:14:56.927Z,100236.67
2019-06-20T09:17:29.851Z,100239.95
2019-06-20T09:20:00.680Z,100235.95
2019-06-20T09:22:31.647Z,100231.41
2019-06-20T09:25:02.953Z,100224.44
2019-06-20T09:27:33.734Z,100221.73
2019-06-20T09:30:09.641Z,100229.94
2019-06-20T09:32:41.085Z,100230.11
2019-06-20T09:35:12.391Z,100232.94
2019-06-20T09:37:43.212Z,100239.66
2019-06-20T09:40:14.301Z,100232.94
2019-06-20T09:42:44.986Z,100238.48
2019-06-20T09:45:17.637Z,100242.16
2019-06-20T09:47:50.414Z,100239.80
2019-06-20T09:50:21.521Z,100242.16
2019-06-20T09:52:53.702Z,100244.39
2019-06-20T09:55:25.019Z,100232.08
2019-06-20T09:57:58.657Z,100245.70
2019-06-20T10:00:30.513Z,100243.06
2019-06-20T10:03:01.617Z,100243.89
2019-06-20T10:05:32.354Z,100240.09
2019-06-20T10:08:03.134Z,100239.83
2019-06-20T10:10:34.673Z,100239.63
2019-06-20T10:13:05.749Z,100241.88
2019-06-20T10:15:39.211Z,100239.06
2019-06-20T10:18:12.763Z,100239.58
2019-06-20T10:20:44.390Z,100246.97
2019-06-20T10:23:16.767Z,100245.37
2019-06-20T10:25:49.295Z,100245.78
2019-06-20T10:28:20.215Z,100252.23
2019-06-20T10:30:53.429Z,100248.61
2019-06-20T10:33:25.658Z,100244.63
2019-06-20T10:35:57.304Z,100250.16
2019-06-20T10:38:28.389Z,100233.81
2019-06-20T10:41:00.086Z,100231.56
2019-06-20T10:43:31.221Z,100223.87
2019-06-20T10:46:04.034Z,100221.47
2019-06-20T10:48:34.791Z,100220.37
2019-06-20T10:51:23.931Z,100223.88
2019-06-20T10:53:55.014Z,100214.00
2019-06-20T10:56:25.583Z,100218.91
2019-06-20T10:58:56.525Z,100212.77
2019-06-20T11:01:27.864Z,100212.23
2019-06-20T11:04:00.649Z,100220.41
2019-06-20T11:06:31.944Z,100217.48
2019-06-20T11:09:02.618Z,100220.54
2019-06-20T11:11:38.350Z,100219.16
2019-06-20T11:14:14.032Z,100226.15
2019-06-20T11:16:49.218Z,100220.23
2019-06-20T11:19:20.377Z,100218.80
2019-06-20T11:21:51.437Z,100214.88
2019-06-20T11:24:23.967Z,100204.02
2019-06-20T11:26:55.081Z,100201.83
2019-06-20T11:29:27.006Z,100192.89
2019-06-20T11:32:01.399Z,100202.41
2019-06-20T11:34:37.697Z,100199.55
2019-06-20T11:37:08.155Z,100189.14
2019-06-20T11:39:38.985Z,100196.23
2019-06-20T11:42:09.731Z,100187.00
2019-06-20T11:44:40.886Z,100191.91
2019-06-20T11:47:11.858Z,100187.95
2019-06-20T11:49:42.611Z,100183.68
2019-06-20T11:52:13.580Z,100196.30
2019-06-20T11:54:44.575Z,100195.16
2019-06-20T11:57:15.294Z,100178.77
2019-06-20T11:59:46.225Z,100171.56
2019-06-20T12:02:17.779Z,100176.79
2019-06-20T12:04:49.148Z,100179.71
2019-06-20T12:07:20.651Z,100173.84
2019-06-20T12:09:51.426Z,100169.00
2019-06-20T12:12:22.199Z,100163.63
2019-06-20T12:14:53.780Z,100158.06
2019-06-20T12:17:24.500Z,100155.55
2019-06-20T12:19:55.156Z,100149.15
2019-06-20T12:22:25.854Z,100151.63
2019-06-20T12:24:57.739Z,100150.05
2019-06-20T12:27:29.126Z,100141.82
2019-06-20T12:29:59.868Z,100148.44
2019-06-20T12:32:30.574Z,100145.03
2019-06-20T12:35:01.857Z,100132.86
2019-06-20T12:37:34.955Z,100142.34
2019-06-20T12:40:09.884Z,100146.72
2019-06-20T12:42:43.211Z,100146.54
2019-06-20T12:45:15.946Z,100145.89
2019-06-20T12:47:47.658Z,100144.45
2019-06-20T12:50:19.647Z,100151.20
2019-06-20T12:52:50.661Z,100146.08
2019-06-20T12:55:22.072Z,100147.92
2019-06-20T12:57:53.574Z,100143.92
2019-06-20T13:00:25.272Z,100137.64
2019-06-20T13:02:56.639Z,100135.63
2019-06-20T13:05:28.155Z,100129.36
2019-06-20T13:07:59.295Z,100136.22
2019-06-20T13:10:30.000Z,100133.50
2019-06-20T13:13:00.839Z,100133.05
2019-06-20T13:15:31.757Z,100134.39
2019-06-20T13:18:02.803Z,100135.19
2019-06-20T13:20:35.483Z,100134.08
2019-06-20T13:23:06.422Z,100129.80
2019-06-20T13:25:37.726Z,100119.86
2019-06-20T13:28:10.438Z,100125.36
2019-06-20T13:30:46.886Z,100117.93
2019-06-20T13:33:14.978Z,100112.70
2019-06-20T13:35:46.714Z,100122.26
2019-06-20T13:38:17.513Z,100123.02
2019-06-20T13:40:49.380Z,100123.25
2019-06-20T13:43:21.134Z,100119.28
2019-06-20T13:45:52.615Z,100117.63
2019-06-20T13:48:23.234Z,100124.45
2019-06-20T13:50:53.928Z,100121.16
2019-06-20T13:53:25.540Z,100123.07
2019-06-20T13:55:56.459Z,100109.50
2019-06-20T13:58:27.179Z,100124.13
2019-06-20T14:00:57.863Z,100121.34
2019-06-20T14:03:28.543Z,100127.61
2019-06-20T14:06:00.469Z,100128.95
2019-06-20T14:08:32.623Z,100128.55
2019-06-20T14:11:03.536Z,100128.07
2019-06-20T14:13:34.985Z,100132.56
2019-06-20T14:16:06.617Z,100132.23
2019-06-20T14:18:37.466Z,100138.45
2019-06-20T14:21:10.477Z,100140.94
2019-06-20T14:23:42.889Z,100141.57
2019-06-20T14:26:14.481Z,100141.32
2019-06-20T14:28:46.102Z,100149.23
2019-06-20T14:31:16.970Z,100154.95
2019-06-20T14:33:48.511Z,100158.84
2019-06-20T14:36:21.628Z,100162.94
2019-06-20T14:38:53.850Z,100156.13
2019-06-20T14:41:24.770Z,100164.02
2019-06-20T14:43:56.589Z,100172.27
2019-06-20T14:46:27.267Z,100189.20
2019-06-20T14:48:58.400Z,100213.02
2019-06-20T14:51:29.354Z,100222.03
2019-06-20T14:54:03.385Z,100218.45
2019-06-20T14:56:34.250Z,100216.27
2019-06-20T14:59:06.222Z,100226.27
2019-06-20T15:01:36.930Z,100233.80
2019-06-20T15:04:07.731Z,100241.34
2019-06-20T15:06:39.574Z,100249.41
2019-06-20T15:09:11.339Z,100256.94
2019-06-20T15:11:45.807Z,100252.47
2019-06-20T15:14:16.105Z,100251.64
2019-06-20T15:16:48.333Z,100256.11
2019-06-20T15:19:19.464Z,100257.78
2019-06-20T15:21:50.254Z,100259.45
2019-06-20T15:24:21.861Z,100266.39
2019-06-20T15:26:52.632Z,100270.28
2019-06-20T15:29:23.378Z,100268.30
2019-06-20T15:31:54.820Z,100264.41
2019-06-20T15:34:25.995Z,100263.00
2019-06-20T15:36:57.802Z,100257.63
2019-06-20T15:39:29.658Z,100250.58
2019-06-20T15:42:00.443Z,100240.56
2019-06-20T15:44:31.132Z,100237.42
2019-06-20T15:47:03.017Z,100230.02
2019-06-20T15:49:33.844Z,100237.23
2019-06-20T15:52:07.463Z,100229.42
2019-06-20T15:54:38.257Z,100228.74
2019-06-20T15:57:09.048Z,100227.95
2019-06-20T15:59:42.158Z,100224.02
2019-06-20T16:02:12.863Z,100220.97
2019-06-20T16:04:43.749Z,100215.43
2019-06-20T16:07:14.679Z,100221.56
2019-06-20T16:09:46.449Z,100229.36
2019-06-20T16:12:17.975Z,100233.75
2019-06-20T16:14:50.544Z,100237.95
2019-06-20T16:17:21.311Z,100242.36
2019-06-20T16:19:52.878Z,100244.14
2019-06-20T16:22:23.947Z,100239.11
2019-06-20T16:24:55.293Z,100233.16
2019-06-20T16:27:26.719Z,100240.92
2019-06-20T16:29:58.391Z,100238.11
2019-06-20T16:32:29.187Z,100245.89
2019-06-20T16:34:59.849Z,100251.67
2019-06-20T16:37:30.720Z,100245.89
2019-06-20T16:40:01.517Z,100257.52
2019-06-20T16:42:33.298Z,100262.55
2019-06-20T16:45:08.179Z,100267.91
2019-06-20T16:47:39.501Z,100274.48
2019-06-20T16:50:12.042Z,100276.64
2019-06-20T16:52:43.927Z,100282.56
2019-06-20T16:55:14.962Z,100287.28
2019-06-20T16:57:45.751Z,100286.31
2019-06-20T17:00:18.627Z,100292.75
2019-06-20T17:02:49.833Z,100291.93
2019-06-20T17:05:21.236Z,100290.50
2019-06-20T17:07:52.412Z,100295.63
2019-06-20T17:10:23.884Z,100302.91
2019-06-20T17:12:55.294Z,100299.83
2019-06-20T17:15:26.578Z,100301.74
2019-06-20T17:17:58.273Z,100304.75
2019-06-20T17:20:29.209Z,100315.02
2019-06-20T17:23:00.368Z,100315.26
2019-06-20T17:25:31.424Z,100320.04
2019-06-20T17:28:03.517Z,100315.58
2019-06-20T17:30:36.382Z,100316.69
2019-06-20T17:33:07.938Z,100316.41
2019-06-20T17:35:39.567Z,100324.23
2019-06-20T17:38:10.393Z,100323.22
2019-06-20T17:40:42.123Z,100327.69
2019-06-20T17:43:13.591Z,100328.53
2019-06-20T17:45:44.949Z,100329.64
2019-06-20T17:48:16.217Z,100330.10
2019-06-20T17:50:47.365Z,100323.14
2019-06-20T17:53:18.259Z,100326.53
2019-06-20T17:55:50.128Z,100327.38
2019-06-20T17:58:21.199Z,100325.98
2019-06-20T18:00:52.175Z,100333.77
2019-06-20T18:03:23.602Z,100330.08
2019-06-20T18:05:54.890Z,100330.08
2019-06-20T18:08:25.958Z,100329.25
2019-06-20T18:10:57.326Z,100340.38
2019-06-20T18:13:28.159Z,100335.63
2019-06-20T18:15:58.948Z,100335.05
2019-06-20T18:18:29.619Z,100345.33
2019-06-20T18:21:00.532Z,100338.09
2019-06-20T18:23:31.632Z,100342.53
2019-06-20T18:26:03.229Z,100343.11
2019-06-20T18:28:34.474Z,100339.72
2019-06-20T18:31:05.361Z,100338.86
2019-06-20T18:33:36.437Z,100343.87
2019-06-20T18:36:07.576Z,100340.23
2019-06-20T18:38:38.613Z,100349.16
2019-06-20T18:41:09.582Z,100345.47
2019-06-20T18:43:40.517Z,100353.56
2019-06-20T18:46:11.323Z,100346.96
2019-06-20T18:48:42.014Z,100340.86
2019-06-20T18:51:12.796Z,100344.74
2019-06-20T18:53:43.962Z,100348.94
2019-06-20T18:56:14.862Z,100353.94
2019-06-20T18:58:45.571Z,100360.22
2019-06-20T19:01:16.531Z,100364.53
2019-06-20T19:03:47.608Z,100369.75
2019-06-20T19:06:34.814Z,100377.92
2019-06-20T19:08:51.193Z,100383.22
2019-06-20T19:11:22.413Z,100390.75
2019-06-20T19:13:53.625Z,100403.58
2019-06-20T19:16:24.714Z,100406.37
2019-06-20T19:19:01.089Z,100410.78
2019-06-20T19:21:32.388Z,100414.08
2019-06-20T19:24:03.311Z,100419.83
2019-06-20T19:26:34.428Z,100411.70
2019-06-20T19:29:05.707Z,100419.38
2019-06-20T19:31:36.428Z,100419.94
2019-06-20T19:34:07.638Z,100425.45
2019-06-20T19:36:41.071Z,100434.34
2019-06-20T19:39:11.598Z,100431.55
2019-06-20T19:41:43.959Z,100442.12
2019-06-20T19:44:15.883Z,100443.30
2019-06-20T19:46:46.859Z,100450.47
2019-06-20T19:49:19.475Z,100451.12
2019-06-20T19:51:50.977Z,100459.61
2019-06-20T19:54:22.119Z,100462.87
2019-06-20T19:56:53.433Z,100463.05
2019-06-20T19:59:24.495Z,100461.11
2019-06-20T20:01:57.185Z,100461.62
2019-06-20T20:04:28.637Z,100463.49
2019-06-20T20:07:00.415Z,100472.49
2019-06-20T20:09:31.330Z,100476.54
2019-06-20T20:12:02.440Z,100473.27
2019-06-20T20:14:33.328Z,100473.69
2019-06-20T20:17:04.285Z,100474.53
2019-06-20T20:19:39.759Z,100466.64
2019-06-20T20:22:11.305Z,100463.52
2019-06-20T20:24:42.359Z,100464.50
2019-06-20T20:27:15.203Z,100461.80
2019-06-20T20:29:46.253Z,100465.40
2019-06-20T20:32:17.681Z,100471.28
2019-06-20T20:34:49.080Z,100471.06
2019-06-20T20:37:20.040Z,100467.38
2019-06-20T20:39:51.361Z,100466.77
2019-06-20T20:42:24.062Z,100474.70
2019-06-20T20:44:55.461Z,100470.37
2019-06-20T20:47:28.521Z,100476.59
2019-06-20T20:50:00.663Z,100480.97
2019-06-20T20:52:32.038Z,100478.20
2019-06-20T20:55:07.635Z,100483.06
2019-06-20T20:57:39.193Z,100474.83
2019-06-20T21:00:13.770Z,100473.32
2019-06-20T21:02:48.905Z,100461.39
2019-06-20T21:05:20.290Z,100460.05
2019-06-20T21:07:51.453Z,100464.13
2019-06-20T21:10:22.993Z,100461.19
2019-06-20T21:12:54.286Z,100459.33
2019-06-20T21:15:25.740Z,100460.13
2019-06-20T21:17:56.516Z,100462.90
2019-06-20T21:20:29.358Z,100461.72
2019-06-20T21:23:01.235Z,100471.23
2019-06-20T21:25:32.866Z,100478.08
2019-06-20T21:28:03.711Z,100484.62
2019-06-20T21:30:34.507Z,100481.11
2019-06-20T21:33:05.326Z,100486.10
2019-06-20T21:35:35.991Z,100492.13
2019-06-20T21:38:06.751Z,100485.06
2019-06-20T21:40:38.002Z,100495.45
2019-06-20T21:43:09.487Z,100492.62
2019-06-20T21:45:41.005Z,100498.16
2019-06-20T21:48:12.305Z,100494.94
2019-06-20T21:50:44.278Z,100500.94
2019-06-20T21:53:15.169Z,100501.56
2019-06-20T21:55:45.868Z,100501.08
2019-06-20T21:58:16.975Z,100502.66
2019-06-20T22:00:50.793Z,100506.21
2019-06-20T22:03:24.049Z,100505.99
2019-06-20T22:05:54.982Z,100509.18
2019-06-20T22:08:25.655Z,100503.52
2019-06-20T22:10:56.488Z,100499.16
2019-06-20T22:13:27.488Z,100503.88
2019-06-20T22:15:58.338Z,100508.76
2019-06-20T22:18:29.013Z,100517.06
2019-06-20T22:20:59.867Z,100510.32
2019-06-20T22:23:30.616Z,100506.67
2019-06-20T22:26:01.313Z,100504.27
2019-06-20T22:28:34.273Z,100497.76
2019-06-20T22:31:05.301Z,100504.12
2019-06-20T22:33:35.974Z,100504.27
2019-06-20T22:36:06.782Z,100507.16
2019-06-20T22:38:37.458Z,100509.98
2019-06-20T22:41:08.118Z,100511.53
2019-06-20T22:43:38.998Z,100515.09
2019-06-20T22:46:09.666Z,100513.97
2019-06-20T22:48:40.422Z,100518.22
2019-06-20T22:51:13.779Z,100520.62
2019-06-20T22:53:43.665Z,100532.10
2019-06-20T22:56:14.586Z,100534.27
2019-06-20T22:58:45.444Z,100535.01
2019-06-20T23:01:16.130Z,100527.25
2019-06-20T23:03:46.902Z,100529.83
2019-06-20T23:06:17.677Z,100530.06
2019-06-20T23:08:49.765Z,100525.51
2019-06-20T23:11:20.618Z,100526.89
2019-06-20T23:13:51.403Z,100526.59
2019-06-20T23:16:22.307Z,100524.42
2019-06-20T23:18:53.099Z,100522.09
2019-06-20T23:21:23.767Z,100525.98
2019-06-20T23:23:54.457Z,100519.73
2019-06-20T23:26:25.262Z,100526.47
2019-06-20T23:29:14.181Z,100533.55
2019-06-20T23:31:44.858Z,100528.14
2019-06-20T23:34:15.633Z,100521.31
2019-06-20T23:36:46.477Z,100522.74
2019-06-20T23:39:17.385Z,100520.94
2019-06-20T23:41:48.172Z,100524.00
2019-06-20T23:44:18.834Z,100525.42
2019-06-20T23:46:49.619Z,100524.73
2019-06-20T23:49:20.477Z,100513.19
2019-06-20T23:52:07.850Z,100526.87
2019-06-20T23:54:38.619Z,100533.46
2019-06-20T23:57:09.319Z,100537.36
2019-06-20T23:59:40.028Z,100540.12
